sensor_id;sensor_type;location;lat;lon;timestamp;pressure;altitude;pressure_sealevel;temperature;humidity
7333;BME280;3707;43.618;25.342;2023-05-02T00:00:29;100652.59;;;16.48;52.07
7333;BME280;3707;43.618;25.342;2023-05-02T00:02:56;100650.00;;;16.47;51.99
7333;BME280;3707;43.618;25.342;2023-05-02T00:05:25;100653.47;;;16.52;52.17
7333;BME280;3707;43.618;25.342;2023-05-02T00:07:52;100651.72;;;16.45;52.24
7333;BME280;3707;43.618;25.342;2023-05-02T00:10:19;100658.72;;;16.36;52.49
7333;BME280;3707;43.618;25.342;2023-05-02T00:12:46;100646.47;;;16.31;52.46
7333;BME280;3707;43.618;25.342;2023-05-02T00:15:13;100658.69;;;16.30;53.10
7333;BME280;3707;43.618;25.342;2023-05-02T00:17:40;100564.47;;;15.73;52.83
7333;BME280;3707;43.618;25.342;2023-05-02T00:20:08;100649.94;;;16.10;53.19
7333;BME280;3707;43.618;25.342;2023-05-02T00:22:37;100662.16;;;16.23;52.26
7333;BME280;3707;43.618;25.342;2023-05-02T00:25:05;100652.56;;;16.09;52.99
7333;BME280;3707;43.618;25.342;2023-05-02T00:27:32;100652.56;;;16.07;52.91
7333;BME280;3707;43.618;25.342;2023-05-02T00:29:59;100665.59;;;15.89;53.09
7333;BME280;3707;43.618;25.342;2023-05-02T00:32:26;100654.28;;;15.87;52.99
7333;BME280;3707;43.618;25.342;2023-05-02T00:34:53;100662.13;;;15.99;52.80
7333;BME280;3707;43.618;25.342;2023-05-02T00:37:20;100661.28;;;16.03;52.71
7333;BME280;3707;43.618;25.342;2023-05-02T00:39:48;100666.50;;;16.09;52.22
7333;BME280;3707;43.618;25.342;2023-05-02T00:42:14;100664.75;;;15.96;52.53
7333;BME280;3707;43.618;25.342;2023-05-02T00:44:41;100663.03;;;16.01;53.16
7333;BME280;3707;43.618;25.342;2023-05-02T00:47:08;100655.19;;;16.01;52.54
7333;BME280;3707;43.618;25.342;2023-05-02T00:49:35;100676.09;;;15.97;52.52
7333;BME280;3707;43.618;25.342;2023-05-02T00:52:02;100667.38;;;16.02;52.59
7333;BME280;3707;43.618;25.342;2023-05-02T00:54:30;100628.09;;;15.79;52.35
7333;BME280;3707;43.618;25.342;2023-05-02T00:56:58;100670.03;;;16.08;52.81
7333;BME280;3707;43.618;25.342;2023-05-02T00:59:25;100669.13;;;16.00;52.92
7333;BME280;3707;43.618;25.342;2023-05-02T01:02:03;100670.88;;;16.03;52.85
7333;BME280;3707;43.618;25.342;2023-05-02T01:04:37;100669.13;;;16.03;52.87
7333;BME280;3707;43.618;25.342;2023-05-02T01:07:20;100677.81;;;15.99;53.03
7333;BME280;3707;43.618;25.342;2023-05-02T01:09:56;100645.56;;;15.99;53.00
7333;BME280;3707;43.618;25.342;2023-05-02T01:12:32;100671.75;;;16.09;53.17
7333;BME280;3707;43.618;25.342;2023-05-02T01:15:06;100661.25;;;16.02;53.23
7333;BME280;3707;43.618;25.342;2023-05-02T01:17:35;100669.13;;;16.03;53.47
7333;BME280;3707;43.618;25.342;2023-05-02T01:20:07;100676.06;;;15.98;54.01
7333;BME280;3707;43.618;25.342;2023-05-02T01:22:37;100661.22;;;15.88;54.07
7333;BME280;3707;43.618;25.342;2023-05-02T01:25:15;100671.75;;;16.05;54.39
7333;BME280;3707;43.618;25.342;2023-05-02T01:27:52;100667.41;;;16.11;54.29
7333;BME280;3707;43.618;25.342;2023-05-02T01:30:26;100668.25;;;16.09;54.60
7333;BME280;3707;43.618;25.342;2023-05-02T01:32:56;100668.25;;;16.04;54.41
7333;BME280;3707;43.618;25.342;2023-05-02T01:35:25;100649.94;;;15.97;54.55
7333;BME280;3707;43.618;25.342;2023-05-02T01:37:53;100663.88;;;16.00;54.65
7333;BME280;3707;43.618;25.342;2023-05-02T01:40:22;100667.38;;;15.99;55.23
7333;BME280;3707;43.618;25.342;2023-05-02T01:42:51;100669.97;;;15.99;55.15
7333;BME280;3707;43.618;25.342;2023-05-02T01:45:20;100663.88;;;15.97;55.57
7333;BME280;3707;43.618;25.342;2023-05-02T01:47:49;100672.59;;;15.96;55.54
7333;BME280;3707;43.618;25.342;2023-05-02T01:50:20;100669.13;;;16.00;56.25
7333;BME280;3707;43.618;25.342;2023-05-02T01:52:49;100669.97;;;15.92;56.03
7333;BME280;3707;43.618;25.342;2023-05-02T01:55:17;100674.34;;;15.94;55.84
7333;BME280;3707;43.618;25.342;2023-05-02T01:57:46;100668.25;;;16.06;56.73
7333;BME280;3707;43.618;25.342;2023-05-02T02:00:16;100676.09;;;16.04;56.69
7333;BME280;3707;43.618;25.342;2023-05-02T02:02:45;100673.47;;;15.97;57.42
7333;BME280;3707;43.618;25.342;2023-05-02T02:05:13;100669.97;;;16.02;57.72
7333;BME280;3707;43.618;25.342;2023-05-02T02:07:42;100672.59;;;15.96;58.21
7333;BME280;3707;43.618;25.342;2023-05-02T02:10:09;100672.59;;;16.02;57.84
7333;BME280;3707;43.618;25.342;2023-05-02T02:12:39;100672.66;;;16.19;58.25
7333;BME280;3707;43.618;25.342;2023-05-02T02:15:11;100677.00;;;16.21;57.91
7333;BME280;3707;43.618;25.342;2023-05-02T02:17:42;100673.50;;;16.16;57.99
7333;BME280;3707;43.618;25.342;2023-05-02T02:20:11;100672.59;;;16.05;58.92
7333;BME280;3707;43.618;25.342;2023-05-02T02:22:41;100677.84;;;16.05;58.67
7333;BME280;3707;43.618;25.342;2023-05-02T02:25:11;100676.06;;;15.98;58.80
7333;BME280;3707;43.618;25.342;2023-05-02T02:27:39;100664.72;;;15.88;59.43
7333;BME280;3707;43.618;25.342;2023-05-02T02:30:07;100672.59;;;15.93;59.31
7333;BME280;3707;43.618;25.342;2023-05-02T02:32:34;100678.66;;;15.87;60.21
7333;BME280;3707;43.618;25.342;2023-05-02T02:35:01;100675.19;;;15.82;60.43
7333;BME280;3707;43.618;25.342;2023-05-02T02:37:30;100658.59;;;15.82;61.25
7333;BME280;3707;43.618;25.342;2023-05-02T02:40:04;100683.97;;;16.01;60.03
7333;BME280;3707;43.618;25.342;2023-05-02T02:42:38;100655.13;;;15.80;60.89
7333;BME280;3707;43.618;25.342;2023-05-02T02:45:22;100679.56;;;15.94;60.58
7333;BME280;3707;43.618;25.342;2023-05-02T02:47:58;100676.91;;;15.82;61.31
7333;BME280;3707;43.618;25.342;2023-05-02T02:50:30;100662.91;;;15.63;61.51
7333;BME280;3707;43.618;25.342;2023-05-02T02:53:01;100681.28;;;15.83;61.16
7333;BME280;3707;43.618;25.342;2023-05-02T02:55:45;100681.28;;;15.92;61.17
7333;BME280;3707;43.618;25.342;2023-05-02T02:58:20;100627.16;;;15.61;61.14
7333;BME280;3707;43.618;25.342;2023-05-02T03:00:47;100682.13;;;15.73;61.22
7333;BME280;3707;43.618;25.342;2023-05-02T03:03:14;100683.94;;;16.03;76.02
7333;BME280;3707;43.618;25.342;2023-05-02T03:05:43;100674.34;;;16.03;64.65
7333;BME280;3707;43.618;25.342;2023-05-02T03:08:10;100689.16;;;15.94;65.34
7333;BME280;3707;43.618;25.342;2023-05-02T03:10:39;100691.75;;;15.92;63.38
7333;BME280;3707;43.618;25.342;2023-05-02T03:13:06;100666.44;;;15.76;62.01
7333;BME280;3707;43.618;25.342;2023-05-02T03:16:09;100673.50;;;16.01;62.77
7333;BME280;3707;43.618;25.342;2023-05-02T03:18:40;100609.63;;;15.38;61.53
7333;BME280;3707;43.618;25.342;2023-05-02T03:21:07;100696.97;;;15.83;61.25
7333;BME280;3707;43.618;25.342;2023-05-02T03:23:33;100607.03;;;15.40;69.57
7333;BME280;3707;43.618;25.342;2023-05-02T03:26:01;100697.91;;;16.00;61.55
7333;BME280;3707;43.618;25.342;2023-05-02T03:28:28;100686.53;;;15.92;60.44
7333;BME280;3707;43.618;25.342;2023-05-02T03:30:55;100701.38;;;16.05;60.00
7333;BME280;3707;43.618;25.342;2023-05-02T03:33:22;100710.16;;;16.18;59.35
7333;BME280;3707;43.618;25.342;2023-05-02T03:35:49;100709.22;;;15.99;58.50
7333;BME280;3707;43.618;25.342;2023-05-02T03:38:16;100703.16;;;16.11;57.99
7333;BME280;3707;43.618;25.342;2023-05-02T03:40:43;100710.22;;;16.54;64.03
7333;BME280;3707;43.618;25.342;2023-05-02T03:43:11;100698.84;;;17.14;56.04
7333;BME280;3707;43.618;25.342;2023-05-02T03:45:38;100717.88;;;17.94;53.37
7333;BME280;3707;43.618;25.342;2023-05-02T03:48:05;100713.94;;;18.64;50.64
7333;BME280;3707;43.618;25.342;2023-05-02T03:50:32;100723.94;;;19.20;48.69
7333;BME280;3707;43.618;25.342;2023-05-02T03:52:58;100727.88;;;19.68;46.55
7333;BME280;3707;43.618;25.342;2023-05-02T03:55:25;100714.63;;;19.76;46.42
7333;BME280;3707;43.618;25.342;2023-05-02T03:57:52;100731.06;;;20.57;44.99
7333;BME280;3707;43.618;25.342;2023-05-02T04:00:21;100728.72;;;20.91;43.65
7333;BME280;3707;43.618;25.342;2023-05-02T04:02:48;100742.44;;;21.14;42.80
7333;BME280;3707;43.618;25.342;2023-05-02T04:05:15;100738.88;;;21.64;42.33
7333;BME280;3707;43.618;25.342;2023-05-02T04:07:42;100738.75;;;22.12;43.99
7333;BME280;3707;43.618;25.342;2023-05-02T04:10:09;100742.41;;;22.06;45.36
7333;BME280;3707;43.618;25.342;2023-05-02T04:12:41;100704.94;;;22.29;44.66
7333;BME280;3707;43.618;25.342;2023-05-02T04:15:08;100744.78;;;22.95;43.68
7333;BME280;3707;43.618;25.342;2023-05-02T04:17:37;100744.22;;;23.16;43.11
7333;BME280;3707;43.618;25.342;2023-05-02T04:20:04;100746.69;;;23.22;43.22
7333;BME280;3707;43.618;25.342;2023-05-02T04:22:31;100748.81;;;23.10;43.33
7333;BME280;3707;43.618;25.342;2023-05-02T04:24:58;100753.28;;;23.42;42.87
7333;BME280;3707;43.618;25.342;2023-05-02T04:27:25;100748.22;;;23.33;40.86
7333;BME280;3707;43.618;25.342;2023-05-02T04:29:52;100752.63;;;23.97;51.21
7333;BME280;3707;43.618;25.342;2023-05-02T04:32:19;100755.72;;;24.11;40.50
7333;BME280;3707;43.618;25.342;2023-05-02T04:34:47;100766.38;;;24.68;39.00
7333;BME280;3707;43.618;25.342;2023-05-02T04:37:14;100762.84;;;25.22;38.17
7333;BME280;3707;43.618;25.342;2023-05-02T04:39:41;100782.75;;;25.84;38.09
7333;BME280;3707;43.618;25.342;2023-05-02T04:42:08;100780.06;;;26.09;36.75
7333;BME280;3707;43.618;25.342;2023-05-02T04:44:35;100774.94;;;26.28;35.06
7333;BME280;3707;43.618;25.342;2023-05-02T04:47:02;100784.28;;;26.38;34.23
7333;BME280;3707;43.618;25.342;2023-05-02T04:49:29;100773.06;;;26.53;33.63
7333;BME280;3707;43.618;25.342;2023-05-02T04:51:57;100771.16;;;26.56;33.09
7333;BME280;3707;43.618;25.342;2023-05-02T04:54:24;100771.69;;;25.96;32.63
7333;BME280;3707;43.618;25.342;2023-05-02T04:56:52;100698.19;;;26.40;31.46
7333;BME280;3707;43.618;25.342;2023-05-02T04:59:19;100778.28;;;25.35;33.25
7333;BME280;3707;43.618;25.342;2023-05-02T05:01:45;100780.72;;;25.68;33.35
7333;BME280;3707;43.618;25.342;2023-05-02T05:04:12;100775.66;;;26.08;32.68
7333;BME280;3707;43.618;25.342;2023-05-02T05:06:39;100774.28;;;25.48;34.50
7333;BME280;3707;43.618;25.342;2023-05-02T05:09:07;100768.25;;;26.16;32.84
7333;BME280;3707;43.618;25.342;2023-05-02T05:11:34;100776.75;;;26.02;32.88
7333;BME280;3707;43.618;25.342;2023-05-02T05:14:02;100779.63;;;25.73;33.55
7333;BME280;3707;43.618;25.342;2023-05-02T05:16:29;100769.22;;;25.16;33.01
7333;BME280;3707;43.618;25.342;2023-05-02T05:18:56;100736.44;;;23.44;35.09
7333;BME280;3707;43.618;25.342;2023-05-02T05:21:23;100770.28;;;23.96;35.63
7333;BME280;3707;43.618;25.342;2023-05-02T05:23:50;100773.00;;;23.62;35.77
7333;BME280;3707;43.618;25.342;2023-05-02T05:26:18;100780.06;;;23.63;35.98
7333;BME280;3707;43.618;25.342;2023-05-02T05:28:45;100757.13;;;23.62;35.98
7333;BME280;3707;43.618;25.342;2023-05-02T05:31:13;100781.41;;;23.46;36.21
7333;BME280;3707;43.618;25.342;2023-05-02T05:33:41;100766.97;;;23.23;36.55
7333;BME280;3707;43.618;25.342;2023-05-02T05:36:10;100781.59;;;22.66;37.93
7333;BME280;3707;43.618;25.342;2023-05-02T05:38:37;100777.84;;;21.50;41.68
7333;BME280;3707;43.618;25.342;2023-05-02T05:41:04;100797.59;;;21.75;41.54
7333;BME280;3707;43.618;25.342;2023-05-02T05:43:33;100793.69;;;21.49;42.73
7333;BME280;3707;43.618;25.342;2023-05-02T05:46:00;100791.50;;;21.72;46.80
7333;BME280;3707;43.618;25.342;2023-05-02T05:48:27;100790.78;;;21.64;49.31
7333;BME280;3707;43.618;25.342;2023-05-02T05:50:54;100797.00;;;21.09;52.32
7333;BME280;3707;43.618;25.342;2023-05-02T05:53:20;100757.22;;;20.05;55.02
7333;BME280;3707;43.618;25.342;2023-05-02T05:55:47;100792.13;;;19.45;58.02
7333;BME280;3707;43.618;25.342;2023-05-02T05:58:14;100794.00;;;19.27;59.35
7333;BME280;3707;43.618;25.342;2023-05-02T06:00:42;100788.59;;;19.46;62.10
7333;BME280;3707;43.618;25.342;2023-05-02T06:03:09;100796.72;;;19.18;62.18
7333;BME280;3707;43.618;25.342;2023-05-02T06:05:36;100788.16;;;18.97;62.70
7333;BME280;3707;43.618;25.342;2023-05-02T06:08:03;100759.09;;;19.10;62.93
7333;BME280;3707;43.618;25.342;2023-05-02T06:10:30;100788.66;;;19.40;63.16
7333;BME280;3707;43.618;25.342;2023-05-02T06:12:56;100798.41;;;19.25;63.86
7333;BME280;3707;43.618;25.342;2023-05-02T06:15:23;100798.34;;;19.31;66.27
7333;BME280;3707;43.618;25.342;2023-05-02T06:17:51;100797.34;;;19.48;66.73
7333;BME280;3707;43.618;25.342;2023-05-02T06:20:18;100794.13;;;19.15;65.71
7333;BME280;3707;43.618;25.342;2023-05-02T06:22:45;100790.44;;;19.35;67.31
7333;BME280;3707;43.618;25.342;2023-05-02T06:25:12;100792.97;;;19.48;67.95
7333;BME280;3707;43.618;25.342;2023-05-02T06:27:39;100793.78;;;19.52;63.85
7333;BME280;3707;43.618;25.342;2023-05-02T06:30:06;100787.31;;;19.85;63.80
7333;BME280;3707;43.618;25.342;2023-05-02T06:32:33;100790.03;;;19.77;60.76
7333;BME280;3707;43.618;25.342;2023-05-02T06:35:01;100789.84;;;19.92;58.56
7333;BME280;3707;43.618;25.342;2023-05-02T06:37:32;100776.28;;;20.25;59.14
7333;BME280;3707;43.618;25.342;2023-05-02T06:39:59;100787.59;;;20.35;55.68
7333;BME280;3707;43.618;25.342;2023-05-02T06:42:26;100787.69;;;20.27;55.40
7333;BME280;3707;43.618;25.342;2023-05-02T06:44:53;100782.31;;;20.37;50.73
7333;BME280;3707;43.618;25.342;2023-05-02T06:47:20;100787.84;;;20.76;50.08
7333;BME280;3707;43.618;25.342;2023-05-02T06:49:49;100796.69;;;20.74;50.09
7333;BME280;3707;43.618;25.342;2023-05-02T06:52:17;100795.50;;;20.93;50.07
7333;BME280;3707;43.618;25.342;2023-05-02T06:54:44;100792.16;;;20.82;47.92
7333;BME280;3707;43.618;25.342;2023-05-02T06:57:10;100795.50;;;20.93;47.24
7333;BME280;3707;43.618;25.342;2023-05-02T06:59:37;100782.22;;;20.99;46.73
7333;BME280;3707;43.618;25.342;2023-05-02T07:02:04;100786.34;;;21.18;46.99
7333;BME280;3707;43.618;25.342;2023-05-02T07:04:31;100798.34;;;21.35;46.21
7333;BME280;3707;43.618;25.342;2023-05-02T07:06:57;100733.06;;;20.97;44.56
7333;BME280;3707;43.618;25.342;2023-05-02T07:09:26;100778.53;;;21.60;44.39
7333;BME280;3707;43.618;25.342;2023-05-02T07:11:52;100797.81;;;21.65;45.13
7333;BME280;3707;43.618;25.342;2023-05-02T07:14:19;100791.81;;;21.55;45.03
7333;BME280;3707;43.618;25.342;2023-05-02T07:16:46;100785.22;;;21.79;45.68
7333;BME280;3707;43.618;25.342;2023-05-02T07:19:13;100796.94;;;21.63;43.83
7333;BME280;3707;43.618;25.342;2023-05-02T07:21:39;100800.34;;;21.69;44.47
7333;BME280;3707;43.618;25.342;2023-05-02T07:24:06;100767.44;;;21.41;42.69
7333;BME280;3707;43.618;25.342;2023-05-02T07:26:34;100796.81;;;21.69;42.78
7333;BME280;3707;43.618;25.342;2023-05-02T07:29:01;100800.91;;;21.87;44.15
7333;BME280;3707;43.618;25.342;2023-05-02T07:31:31;100798.41;;;21.79;41.92
7333;BME280;3707;43.618;25.342;2023-05-02T07:33:57;100795.91;;;22.16;41.16
7333;BME280;3707;43.618;25.342;2023-05-02T07:36:24;100777.34;;;22.20;41.97
7333;BME280;3707;43.618;25.342;2023-05-02T07:38:52;100789.81;;;22.12;40.54
7333;BME280;3707;43.618;25.342;2023-05-02T07:41:19;100792.31;;;22.20;42.09
7333;BME280;3707;43.618;25.342;2023-05-02T07:43:47;100788.69;;;22.26;40.26
7333;BME280;3707;43.618;25.342;2023-05-02T07:46:14;100798.41;;;22.23;39.19
7333;BME280;3707;43.618;25.342;2023-05-02T07:48:40;100803.50;;;21.90;38.93
7333;BME280;3707;43.618;25.342;2023-05-02T07:51:08;100808.13;;;21.77;38.85
7333;BME280;3707;43.618;25.342;2023-05-02T07:53:35;100793.13;;;22.23;38.88
7333;BME280;3707;43.618;25.342;2023-05-02T07:56:02;100780.88;;;22.19;38.12
7333;BME280;3707;43.618;25.342;2023-05-02T07:58:31;100784.53;;;22.14;37.92
7333;BME280;3707;43.618;25.342;2023-05-02T08:00:59;100806.56;;;22.13;38.32
7333;BME280;3707;43.618;25.342;2023-05-02T08:03:26;100797.28;;;22.35;37.75
7333;BME280;3707;43.618;25.342;2023-05-02T08:05:53;100793.19;;;22.60;36.34
7333;BME280;3707;43.618;25.342;2023-05-02T08:08:20;100764.69;;;22.35;35.26
7333;BME280;3707;43.618;25.342;2023-05-02T08:10:47;100798.88;;;22.82;35.45
7333;BME280;3707;43.618;25.342;2023-05-02T08:13:15;100786.78;;;22.72;36.01
7333;BME280;3707;43.618;25.342;2023-05-02T08:15:42;100773.19;;;22.87;35.78
7333;BME280;3707;43.618;25.342;2023-05-02T08:18:10;100790.44;;;23.02;36.13
7333;BME280;3707;43.618;25.342;2023-05-02T08:20:37;100771.97;;;22.62;35.34
7333;BME280;3707;43.618;25.342;2023-05-02T08:23:04;100787.13;;;22.94;35.84
7333;BME280;3707;43.618;25.342;2023-05-02T08:25:31;100794.94;;;22.98;33.59
7333;BME280;3707;43.618;25.342;2023-05-02T08:27:57;100776.56;;;23.28;33.88
7333;BME280;3707;43.618;25.342;2023-05-02T08:30:24;100775.25;;;23.11;34.09
7333;BME280;3707;43.618;25.342;2023-05-02T08:32:51;100795.38;;;23.17;32.59
7333;BME280;3707;43.618;25.342;2023-05-02T08:35:19;100789.56;;;23.01;31.18
7333;BME280;3707;43.618;25.342;2023-05-02T08:37:46;100791.91;;;22.78;31.56
7333;BME280;3707;43.618;25.342;2023-05-02T08:40:13;100786.63;;;22.78;32.27
7333;BME280;3707;43.618;25.342;2023-05-02T08:42:41;100747.78;;;22.43;30.99
7333;BME280;3707;43.618;25.342;2023-05-02T08:45:11;100765.31;;;22.84;32.53
7333;BME280;3707;43.618;25.342;2023-05-02T08:47:39;100786.41;;;22.87;31.78
7333;BME280;3707;43.618;25.342;2023-05-02T08:50:07;100781.63;;;23.03;32.35
7333;BME280;3707;43.618;25.342;2023-05-02T08:52:36;100789.59;;;23.35;32.98
7333;BME280;3707;43.618;25.342;2023-05-02T08:55:05;100788.81;;;23.32;31.96
7333;BME280;3707;43.618;25.342;2023-05-02T08:57:33;100790.03;;;23.54;32.68
7333;BME280;3707;43.618;25.342;2023-05-02T08:59:59;100785.22;;;23.68;32.04
7333;BME280;3707;43.618;25.342;2023-05-02T09:02:44;100783.16;;;23.79;31.83
7333;BME280;3707;43.618;25.342;2023-05-02T09:05:19;100778.22;;;23.65;30.88
7333;BME280;3707;43.618;25.342;2023-05-02T09:07:49;100788.19;;;23.56;31.34
7333;BME280;3707;43.618;25.342;2023-05-02T09:10:16;100784.38;;;23.66;31.98
7333;BME280;3707;43.618;25.342;2023-05-02T09:12:43;100777.59;;;23.56;32.49
7333;BME280;3707;43.618;25.342;2023-05-02T09:15:11;100784.94;;;23.46;32.16
7333;BME280;3707;43.618;25.342;2023-05-02T09:17:42;100753.09;;;23.48;32.06
7333;BME280;3707;43.618;25.342;2023-05-02T09:20:10;100769.84;;;23.50;31.96
7333;BME280;3707;43.618;25.342;2023-05-02T09:22:37;100778.91;;;23.40;32.00
7333;BME280;3707;43.618;25.342;2023-05-02T09:25:07;100763.88;;;23.42;31.88
7333;BME280;3707;43.618;25.342;2023-05-02T09:27:49;100762.50;;;23.59;31.45
7333;BME280;3707;43.618;25.342;2023-05-02T09:30:21;100757.75;;;23.38;31.25
7333;BME280;3707;43.618;25.342;2023-05-02T09:32:48;100760.84;;;23.21;31.98
7333;BME280;3707;43.618;25.342;2023-05-02T09:35:17;100756.81;;;23.73;31.10
7333;BME280;3707;43.618;25.342;2023-05-02T09:37:51;100750.44;;;23.80;31.41
7333;BME280;3707;43.618;25.342;2023-05-02T09:40:20;100745.75;;;23.59;32.32
7333;BME280;3707;43.618;25.342;2023-05-02T09:42:47;100702.00;;;23.46;32.20
7333;BME280;3707;43.618;25.342;2023-05-02T09:45:21;100741.88;;;23.72;30.74
7333;BME280;3707;43.618;25.342;2023-05-02T09:47:48;100708.00;;;23.52;31.02
7333;BME280;3707;43.618;25.342;2023-05-02T09:50:35;100745.75;;;24.21;31.13
7333;BME280;3707;43.618;25.342;2023-05-02T09:53:03;100740.16;;;24.00;31.10
7333;BME280;3707;43.618;25.342;2023-05-02T09:55:32;100711.81;;;23.73;32.12
7333;BME280;3707;43.618;25.342;2023-05-02T09:57:59;100728.69;;;24.00;31.90
7333;BME280;3707;43.618;25.342;2023-05-02T10:00:42;100688.81;;;23.75;29.97
7333;BME280;3707;43.618;25.342;2023-05-02T10:03:10;100729.91;;;23.88;30.02
7333;BME280;3707;43.618;25.342;2023-05-02T10:05:37;100716.34;;;23.99;30.41
7333;BME280;3707;43.618;25.342;2023-05-02T10:08:05;100718.81;;;24.05;30.36
7333;BME280;3707;43.618;25.342;2023-05-02T10:10:36;100728.63;;;24.01;30.15
7333;BME280;3707;43.618;25.342;2023-05-02T10:13:04;100721.00;;;24.22;30.32
7333;BME280;3707;43.618;25.342;2023-05-02T10:15:31;100715.78;;;24.46;29.89
7333;BME280;3707;43.618;25.342;2023-05-02T10:17:59;100695.13;;;24.56;30.13
7333;BME280;3707;43.618;25.342;2023-05-02T10:20:31;100729.03;;;24.46;31.83
7333;BME280;3707;43.618;25.342;2023-05-02T10:23:02;100722.88;;;24.46;29.34
7333;BME280;3707;43.618;25.342;2023-05-02T10:25:28;100718.88;;;24.33;29.38
7333;BME280;3707;43.618;25.342;2023-05-02T10:27:57;100698.34;;;24.39;29.73
7333;BME280;3707;43.618;25.342;2023-05-02T10:30:25;100715.97;;;24.68;29.74
7333;BME280;3707;43.618;25.342;2023-05-02T10:32:52;100711.69;;;24.64;29.91
7333;BME280;3707;43.618;25.342;2023-05-02T10:35:20;100707.84;;;24.73;29.56
7333;BME280;3707;43.618;25.342;2023-05-02T10:37:49;100714.88;;;24.74;29.30
7333;BME280;3707;43.618;25.342;2023-05-02T10:40:17;100711.63;;;24.93;29.07
7333;BME280;3707;43.618;25.342;2023-05-02T10:42:46;100693.66;;;24.74;29.03
7333;BME280;3707;43.618;25.342;2023-05-02T10:45:31;100706.31;;;24.93;30.12
7333;BME280;3707;43.618;25.342;2023-05-02T10:48:17;100696.47;;;24.97;29.16
7333;BME280;3707;43.618;25.342;2023-05-02T10:50:45;100694.81;;;24.93;29.45
7333;BME280;3707;43.618;25.342;2023-05-02T10:53:21;100709.91;;;25.17;29.05
7333;BME280;3707;43.618;25.342;2023-05-02T10:56:07;100700.34;;;25.11;28.52
7333;BME280;3707;43.618;25.342;2023-05-02T10:58:34;100687.13;;;25.35;28.63
7333;BME280;3707;43.618;25.342;2023-05-02T11:04:07;100668.97;;;24.98;28.14
7333;BME280;3707;43.618;25.342;2023-05-02T11:06:35;100697.88;;;25.32;27.97
7333;BME280;3707;43.618;25.342;2023-05-02T11:09:30;100682.16;;;25.50;27.85
7333;BME280;3707;43.618;25.342;2023-05-02T11:12:01;100694.72;;;25.21;28.13
7333;BME280;3707;43.618;25.342;2023-05-02T11:14:45;100684.09;;;25.45;28.41
7333;BME280;3707;43.618;25.342;2023-05-02T11:17:13;100680.34;;;25.26;28.55
7333;BME280;3707;43.618;25.342;2023-05-02T11:22:53;100662.38;;;25.09;28.04
7333;BME280;3707;43.618;25.342;2023-05-02T11:25:44;100676.63;;;25.32;28.41
7333;BME280;3707;43.618;25.342;2023-05-02T11:28:39;100681.84;;;25.35;27.97
7333;BME280;3707;43.618;25.342;2023-05-02T11:31:06;100681.88;;;25.08;28.54
7333;BME280;3707;43.618;25.342;2023-05-02T11:33:34;100678.53;;;25.28;28.27
7333;BME280;3707;43.618;25.342;2023-05-02T11:36:01;100653.53;;;25.34;28.81
7333;BME280;3707;43.618;25.342;2023-05-02T11:38:35;100677.63;;;25.54;27.11
7333;BME280;3707;43.618;25.342;2023-05-02T11:41:02;100647.66;;;25.49;28.30
7333;BME280;3707;43.618;25.342;2023-05-02T11:43:29;100653.81;;;25.74;28.02
7333;BME280;3707;43.618;25.342;2023-05-02T11:45:57;100667.53;;;26.08;27.67
7333;BME280;3707;43.618;25.342;2023-05-02T11:48:25;100641.56;;;25.93;27.61
7333;BME280;3707;43.618;25.342;2023-05-02T11:50:56;100643.06;;;26.00;27.68
7333;BME280;3707;43.618;25.342;2023-05-02T11:53:27;100644.72;;;26.03;26.94
7333;BME280;3707;43.618;25.342;2023-05-02T11:55:56;100646.44;;;25.82;27.60
7333;BME280;3707;43.618;25.342;2023-05-02T11:58:25;100613.69;;;25.58;27.15
7333;BME280;3707;43.618;25.342;2023-05-02T12:00:54;100651.75;;;25.82;26.44
7333;BME280;3707;43.618;25.342;2023-05-02T12:03:23;100648.63;;;25.71;26.67
7333;BME280;3707;43.618;25.342;2023-05-02T12:05:50;100644.44;;;25.87;27.13
7333;BME280;3707;43.618;25.342;2023-05-02T12:08:19;100644.81;;;25.78;27.00
7333;BME280;3707;43.618;25.342;2023-05-02T12:10:47;100635.91;;;25.79;27.35
7333;BME280;3707;43.618;25.342;2023-05-02T12:13:16;100634.19;;;25.78;27.53
7333;BME280;3707;43.618;25.342;2023-05-02T12:15:43;100631.47;;;26.01;27.80
7333;BME280;3707;43.618;25.342;2023-05-02T12:18:11;100629.41;;;26.09;28.25
7333;BME280;3707;43.618;25.342;2023-05-02T12:20:39;100607.56;;;26.01;27.66
7333;BME280;3707;43.618;25.342;2023-05-02T12:23:06;100621.75;;;26.24;27.34
7333;BME280;3707;43.618;25.342;2023-05-02T12:25:37;100625.28;;;26.46;26.73
7333;BME280;3707;43.618;25.342;2023-05-02T12:28:04;100609.63;;;26.38;26.78
7333;BME280;3707;43.618;25.342;2023-05-02T12:30:34;100620.31;;;26.37;27.44
7333;BME280;3707;43.618;25.342;2023-05-02T12:33:03;100611.56;;;26.35;26.78
7333;BME280;3707;43.618;25.342;2023-05-02T12:35:31;100563.81;;;25.88;27.42
7333;BME280;3707;43.618;25.342;2023-05-02T12:38:10;100619.06;;;26.25;27.32
7333;BME280;3707;43.618;25.342;2023-05-02T12:40:38;100592.91;;;26.13;27.24
7333;BME280;3707;43.618;25.342;2023-05-02T12:43:05;100594.81;;;26.53;27.41
7333;BME280;3707;43.618;25.342;2023-05-02T12:45:36;100598.22;;;26.56;26.67
7333;BME280;3707;43.618;25.342;2023-05-02T12:48:17;100591.94;;;26.37;26.41
7333;BME280;3707;43.618;25.342;2023-05-02T12:50:44;100593.59;;;25.96;26.57
7333;BME280;3707;43.618;25.342;2023-05-02T12:53:11;100585.63;;;26.40;27.25
7333;BME280;3707;43.618;25.342;2023-05-02T12:55:38;100572.66;;;26.32;26.65
7333;BME280;3707;43.618;25.342;2023-05-02T12:58:06;100582.16;;;26.38;27.36
7333;BME280;3707;43.618;25.342;2023-05-02T13:00:37;100575.31;;;26.32;26.98
7333;BME280;3707;43.618;25.342;2023-05-02T13:03:04;100580.19;;;26.63;27.72
7333;BME280;3707;43.618;25.342;2023-05-02T13:05:32;100573.72;;;26.69;27.12
7333;BME280;3707;43.618;25.342;2023-05-02T13:07:59;100572.06;;;26.46;27.56
7333;BME280;3707;43.618;25.342;2023-05-02T13:10:26;100578.28;;;26.46;27.07
7333;BME280;3707;43.618;25.342;2023-05-02T13:12:53;100573.72;;;26.48;26.97
7333;BME280;3707;43.618;25.342;2023-05-02T13:15:21;100565.44;;;26.56;27.40